createdAt,value
2018-09-12T00:00:12.598Z,96.40
2018-09-12T00:03:03.574Z,96.50
2018-09-12T00:05:47.324Z,96.50
2018-09-12T00:08:51.013Z,97.00
2018-09-12T00:11:32.712Z,96.70
2018-09-12T00:14:14.526Z,96.70
2018-09-12T00:16:55.281Z,96.90
2018-09-12T00:19:36.835Z,97.20
2018-09-12T00:22:25.543Z,97.00
2018-09-12T00:25:08.223Z,97.10
2018-09-12T00:27:49.825Z,97.10
2018-09-12T00:30:31.470Z,97.00
2018-09-12T00:33:12.308Z,97.10
2018-09-12T00:35:54.018Z,97.10
2018-09-12T00:38:36.229Z,97.10
2018-09-12T00:41:17.424Z,97.20
2018-09-12T00:43:59.154Z,96.80
2018-09-12T00:46:40.898Z,96.50
2018-09-12T00:49:22.598Z,96.40
2018-09-12T00:52:04.289Z,96.40
2018-09-12T00:54:45.939Z,95.70
2018-09-12T00:57:28.577Z,95.80
2018-09-12T01:00:09.223Z,95.90
2018-09-12T01:02:50.070Z,96.00
2018-09-12T01:05:31.707Z,96.20
2018-09-12T01:08:13.767Z,96.20
2018-09-12T01:10:55.376Z,96.30
2018-09-12T01:13:37.067Z,96.50
2018-09-12T01:16:18.848Z,96.40
2018-09-12T01:19:00.570Z,95.90
2018-09-12T01:21:42.381Z,95.80
2018-09-12T01:24:24.218Z,95.90
2018-09-12T01:27:05.963Z,95.90
2018-09-12T01:29:47.717Z,96.00
2018-09-12T01:32:28.319Z,96.10
2018-09-12T01:35:09.151Z,95.30
2018-09-12T01:37:51.718Z,93.70
2018-09-12T01:40:32.764Z,93.10
2018-09-12T01:43:13.591Z,92.40
2018-09-12T01:45:54.306Z,91.80
2018-09-12T01:48:35.365Z,92.10
2018-09-12T01:51:16.361Z,92.20
2018-09-12T01:53:57.332Z,92.70
2018-09-12T01:56:38.116Z,93.10
2018-09-12T01:59:26.330Z,93.30
2018-09-12T02:02:09.011Z,93.40
2018-09-12T02:04:50.530Z,93.60
2018-09-12T02:07:31.330Z,93.80
2018-09-12T02:10:14.363Z,93.90
2018-09-12T02:12:55.696Z,94.00
2018-09-12T02:15:39.787Z,93.70
2018-09-12T02:18:21.173Z,93.60
2018-09-12T02:21:02.863Z,93.60
2018-09-12T02:23:44.544Z,93.60
2018-09-12T02:26:27.220Z,93.20
2018-09-12T02:29:09.352Z,92.80
2018-09-12T02:31:50.405Z,92.50
2018-09-12T02:34:32.150Z,92.50
2018-09-12T02:37:12.930Z,92.30
2018-09-12T02:39:54.655Z,91.70
2018-09-12T02:42:36.225Z,91.50
2018-09-12T02:45:22.828Z,91.40
2018-09-12T02:48:05.462Z,91.40
2018-09-12T02:50:46.350Z,91.50
2018-09-12T02:53:27.177Z,91.50
2018-09-12T02:56:08.090Z,91.50
2018-09-12T02:58:49.694Z,91.60
2018-09-12T03:01:36.278Z,91.40
2018-09-12T03:04:17.928Z,91.20
2018-09-12T03:07:05.661Z,91.00
2018-09-12T03:09:48.539Z,91.00
2018-09-12T03:12:30.026Z,90.70
2018-09-12T03:15:10.898Z,90.70
2018-09-12T03:17:51.744Z,90.60
2018-09-12T03:20:43.812Z,90.40
2018-09-12T03:23:26.588Z,90.60
2018-09-12T03:26:08.124Z,90.70
2018-09-12T03:28:50.118Z,90.80
2018-09-12T03:31:31.473Z,90.70
2018-09-12T03:34:13.261Z,90.80
2018-09-12T03:36:54.899Z,90.90
2018-09-12T03:39:36.480Z,91.10
2018-09-12T03:42:18.095Z,91.30
2018-09-12T03:45:01.224Z,91.40
2018-09-12T03:47:42.552Z,91.50
2018-09-12T03:50:24.019Z,91.50
2018-09-12T03:53:05.749Z,91.40
2018-09-12T03:55:46.447Z,91.40
2018-09-12T03:58:27.257Z,91.40
2018-09-12T04:01:15.855Z,91.30
2018-09-12T04:03:57.162Z,91.20
2018-09-12T04:06:38.358Z,90.10
2018-09-12T04:09:20.323Z,89.60
2018-09-12T04:12:01.796Z,90.00
2018-09-12T04:14:42.653Z,89.80
2018-09-12T04:17:28.311Z,89.70
2018-09-12T04:20:09.123Z,89.70
2018-09-12T04:22:50.324Z,90.00
2018-09-12T04:25:32.404Z,90.20
2018-09-12T04:28:14.133Z,90.80
2018-09-12T04:30:55.625Z,90.40
2018-09-12T04:33:36.866Z,90.30
2018-09-12T04:36:18.544Z,90.30
2018-09-12T04:39:00.124Z,89.70
2018-09-12T04:41:41.526Z,88.80
2018-09-12T04:44:23.035Z,88.90
2018-09-12T04:47:04.772Z,87.30
2018-09-12T04:49:47.114Z,87.50
2018-09-12T04:52:28.610Z,87.30
2018-09-12T04:55:10.946Z,86.10
2018-09-12T04:57:51.828Z,85.20
2018-09-12T05:00:33.366Z,85.60
2018-09-12T05:03:14.012Z,85.80
2018-09-12T05:05:55.715Z,85.70
2018-09-12T05:08:36.650Z,85.70
2018-09-12T05:11:18.338Z,85.50
2018-09-12T05:13:59.202Z,85.60
2018-09-12T05:16:40.916Z,85.40
2018-09-12T05:19:21.626Z,84.10
2018-09-12T05:22:02.484Z,82.70
2018-09-12T05:24:43.438Z,82.30
2018-09-12T05:27:24.639Z,82.60
2018-09-12T05:30:06.865Z,81.10
2018-09-12T05:32:48.186Z,80.60
2018-09-12T05:35:29.287Z,81.10
2018-09-12T05:38:11.295Z,80.20
2018-09-12T05:40:53.573Z,79.80
2018-09-12T05:43:34.231Z,80.00
2018-09-12T05:46:15.818Z,80.00
2018-09-12T05:48:56.621Z,79.20
2018-09-12T05:51:38.684Z,80.10
2018-09-12T05:54:20.469Z,80.30
2018-09-12T05:57:01.720Z,81.00
2018-09-12T05:59:42.629Z,79.60
2018-09-12T06:02:24.614Z,80.00
2018-09-12T06:05:06.357Z,80.50
2018-09-12T06:07:47.927Z,78.60
2018-09-12T06:10:29.439Z,78.50
2018-09-12T06:13:10.178Z,78.70
2018-09-12T06:15:51.022Z,78.90
2018-09-12T06:18:32.683Z,78.50
2018-09-12T06:21:14.341Z,79.40
2018-09-12T06:23:55.225Z,79.30
2018-09-12T06:26:36.750Z,79.70
2018-09-12T06:29:18.384Z,80.60
2018-09-12T06:31:59.132Z,81.20
2018-09-12T06:34:40.118Z,82.30
2018-09-12T06:37:20.908Z,84.50
2018-09-12T06:40:01.799Z,85.70
2018-09-12T06:42:43.180Z,86.80
2018-09-12T06:45:24.860Z,88.50
2018-09-12T06:48:06.504Z,88.50
2018-09-12T06:50:47.920Z,90.00
2018-09-12T06:53:29.533Z,90.50
2018-09-12T06:56:10.181Z,90.80
2018-09-12T06:58:51.854Z,91.00
2018-09-12T07:01:33.332Z,90.80
2018-09-12T07:04:15.084Z,91.10
2018-09-12T07:06:55.927Z,91.10
2018-09-12T07:09:38.442Z,91.30
2018-09-12T07:12:20.022Z,91.30
2018-09-12T07:15:01.686Z,91.60
2018-09-12T07:17:42.565Z,91.80
2018-09-12T07:20:24.441Z,91.40
2018-09-12T07:23:06.163Z,91.90
2018-09-12T07:25:48.041Z,91.40
2018-09-12T07:28:30.223Z,91.20
2018-09-12T07:31:11.823Z,91.30
2018-09-12T07:33:53.488Z,91.10
2018-09-12T07:36:34.215Z,90.90
2018-09-12T07:39:15.003Z,90.70
2018-09-12T07:41:55.776Z,90.50
2018-09-12T07:44:36.745Z,90.40
2018-09-12T07:47:17.602Z,90.20
2018-09-12T07:49:59.232Z,89.50
2018-09-12T07:52:40.924Z,90.20
2018-09-12T07:55:21.896Z,90.00
2018-09-12T07:58:03.065Z,90.00
2018-09-12T08:00:44.502Z,89.00
2018-09-12T08:03:25.373Z,88.10
2018-09-12T08:06:06.420Z,87.10
2018-09-12T08:08:48.628Z,86.80
2018-09-12T08:11:29.570Z,87.00
2018-09-12T08:14:11.019Z,87.70
2018-09-12T08:16:51.951Z,86.10
2018-09-12T08:19:32.627Z,86.30
2018-09-12T08:22:13.313Z,85.20
2018-09-12T08:24:54.908Z,83.60
2018-09-12T08:27:35.837Z,81.20
2018-09-12T08:30:16.618Z,78.00
2018-09-12T08:32:57.443Z,75.20
2018-09-12T08:35:38.563Z,72.30
2018-09-12T08:38:20.024Z,71.80
2018-09-12T08:41:00.828Z,69.30
2018-09-12T08:43:41.710Z,67.40
2018-09-12T08:46:22.530Z,66.50
2018-09-12T08:49:04.310Z,65.00
2018-09-12T08:51:45.746Z,63.50
2018-09-12T08:54:28.566Z,62.30
2018-09-12T08:57:09.939Z,61.90
2018-09-12T08:59:51.066Z,61.10
2018-09-12T09:02:31.988Z,60.50
2018-09-12T09:05:12.799Z,59.90
2018-09-12T09:07:53.532Z,59.50
2018-09-12T09:10:34.378Z,59.30
2018-09-12T09:13:16.027Z,58.40
2018-09-12T09:15:57.705Z,59.40
2018-09-12T09:18:38.682Z,61.30
2018-09-12T09:21:20.364Z,61.40
2018-09-12T09:24:01.719Z,61.40
2018-09-12T09:26:43.631Z,62.20
2018-09-12T09:29:25.453Z,61.70
2018-09-12T09:32:06.237Z,62.80
2018-09-12T09:37:33.242Z,66.60
2018-09-12T09:40:15.065Z,68.40
2018-09-12T09:42:56.564Z,71.40
2018-09-12T09:45:38.222Z,73.30
2018-09-12T09:48:19.900Z,76.00
2018-09-12T09:51:01.682Z,77.30
2018-09-12T09:53:43.888Z,79.40
2018-09-12T09:56:25.297Z,80.80
2018-09-12T09:59:06.814Z,81.80
2018-09-12T10:01:53.611Z,82.60
2018-09-12T10:04:45.921Z,83.20
2018-09-12T10:07:32.978Z,83.90
2018-09-12T10:10:14.832Z,83.10
2018-09-12T10:12:56.686Z,83.30
2018-09-12T10:15:37.629Z,82.80
2018-09-12T10:18:18.323Z,82.00
2018-09-12T10:20:59.986Z,81.00
2018-09-12T10:23:41.581Z,81.10
2018-09-12T10:26:23.327Z,80.40
2018-09-12T10:29:04.955Z,79.00
2018-09-12T10:31:46.109Z,78.40
2018-09-12T10:34:27.448Z,80.50
2018-09-12T10:37:09.183Z,82.50
2018-09-12T10:39:50.935Z,83.70
2018-09-12T10:42:32.579Z,84.90
2018-09-12T10:45:14.221Z,86.20
2018-09-12T10:47:56.415Z,86.50
2018-09-12T10:50:37.550Z,86.70
2018-09-12T10:53:19.113Z,86.80
2018-09-12T10:56:00.742Z,85.80
2018-09-12T10:58:42.698Z,86.40
2018-09-12T11:01:24.299Z,87.20
2018-09-12T11:04:05.053Z,88.40
2018-09-12T11:06:45.980Z,87.40
2018-09-12T11:09:26.629Z,87.50
2018-09-12T11:12:07.575Z,86.70
2018-09-12T11:14:48.290Z,86.70
2018-09-12T11:17:29.128Z,86.60
2018-09-12T11:20:09.954Z,86.70
2018-09-12T11:22:51.704Z,87.00
2018-09-12T11:25:32.510Z,86.40
2018-09-12T11:28:13.999Z,87.00
2018-09-12T11:30:55.580Z,86.40
2018-09-12T11:33:37.286Z,85.90
2018-09-12T11:36:18.968Z,85.90
2018-09-12T11:39:00.746Z,86.40
2018-09-12T11:41:42.224Z,86.80
2018-09-12T11:44:23.988Z,85.70
2018-09-12T11:47:05.751Z,85.10
2018-09-12T11:49:47.447Z,84.60
2018-09-12T11:52:29.297Z,84.70
2018-09-12T11:55:11.262Z,86.20
2018-09-12T11:57:52.911Z,86.60
2018-09-12T12:00:34.665Z,87.10
2018-09-12T12:03:17.375Z,86.90
2018-09-12T12:05:58.946Z,86.60
2018-09-12T12:08:40.772Z,86.40
2018-09-12T12:11:22.250Z,85.20
2018-09-12T12:14:13.511Z,84.00
2018-09-12T12:16:58.706Z,83.60
2018-09-12T12:19:40.833Z,84.20
2018-09-12T12:22:22.276Z,84.70
2018-09-12T12:25:03.102Z,84.00
2018-09-12T12:27:43.954Z,84.20
2018-09-12T12:30:25.058Z,84.30
2018-09-12T12:33:06.536Z,84.00
2018-09-12T12:35:47.545Z,83.50
2018-09-12T12:38:29.148Z,83.70
2018-09-12T12:41:11.110Z,84.10
2018-09-12T12:43:52.528Z,83.50
2018-09-12T12:46:35.317Z,83.90
2018-09-12T12:49:16.926Z,84.00
2018-09-12T12:51:58.679Z,84.60
2018-09-12T12:54:40.978Z,85.00
2018-09-12T12:57:22.577Z,86.40
2018-09-12T13:00:05.288Z,87.70
2018-09-12T13:02:46.476Z,87.80
2018-09-12T13:05:28.091Z,87.40
2018-09-12T13:08:09.588Z,86.70
2018-09-12T13:10:50.458Z,86.80
2018-09-12T13:13:32.053Z,87.60
2018-09-12T13:16:12.797Z,88.00
2018-09-12T13:18:53.681Z,87.60
2018-09-12T13:21:35.258Z,87.10
2018-09-12T13:24:16.721Z,86.80
2018-09-12T13:26:57.554Z,87.20
2018-09-12T13:29:38.435Z,87.30
2018-09-12T13:32:19.776Z,87.30
2018-09-12T13:35:00.813Z,86.50
2018-09-12T13:37:41.630Z,87.80
2018-09-12T13:40:22.593Z,86.90
2018-09-12T13:43:03.517Z,87.60
2018-09-12T13:45:44.462Z,87.60
2018-09-12T13:48:25.360Z,88.30
2018-09-12T13:51:07.801Z,88.90
2018-09-12T13:53:48.636Z,89.60
2018-09-12T13:56:29.337Z,90.00
2018-09-12T13:59:11.070Z,90.10
2018-09-12T14:01:52.774Z,90.40
2018-09-12T14:04:33.769Z,90.70
2018-09-12T14:07:15.065Z,91.20
2018-09-12T14:09:56.512Z,91.40
2018-09-12T14:12:37.314Z,91.60
2018-09-12T14:18:03.795Z,92.00
2018-09-12T14:20:45.412Z,92.40
2018-09-12T14:23:26.884Z,92.60
2018-09-12T14:26:08.226Z,92.50
2018-09-12T14:28:49.410Z,92.30
2018-09-12T14:31:30.181Z,92.10
2018-09-12T14:34:11.892Z,92.20
2018-09-12T14:36:52.697Z,92.20
2018-09-12T14:39:34.372Z,91.90
2018-09-12T14:42:15.027Z,92.00
2018-09-12T14:44:56.625Z,92.50
2018-09-12T14:47:38.195Z,92.60
2018-09-12T14:50:18.909Z,92.40
2018-09-12T14:53:00.883Z,92.60
2018-09-12T14:55:42.750Z,92.90
2018-09-12T14:58:24.429Z,93.30
2018-09-12T15:01:05.789Z,93.70
2018-09-12T15:03:47.352Z,93.60
2018-09-12T15:06:28.036Z,93.50
2018-09-12T15:09:09.068Z,93.30
2018-09-12T15:11:50.393Z,93.50
2018-09-12T15:14:32.155Z,94.00
2018-09-12T15:17:14.617Z,94.40
2018-09-12T15:19:55.577Z,94.60
2018-09-12T15:22:37.143Z,94.80
2018-09-12T15:25:18.818Z,95.00
2018-09-12T15:28:00.373Z,95.30
2018-09-12T15:30:42.095Z,95.70
2018-09-12T15:33:23.830Z,96.20
2018-09-12T15:36:05.208Z,96.70
2018-09-12T15:38:46.061Z,97.30
2018-09-12T15:41:27.916Z,97.80
2018-09-12T15:44:09.702Z,98.70
2018-09-12T15:46:51.062Z,99.30
2018-09-12T15:49:32.866Z,99.40
2018-09-12T15:52:15.033Z,99.80
2018-09-12T15:54:56.791Z,99.90
2018-09-12T15:57:38.874Z,99.90
2018-09-12T16:00:20.484Z,99.90
2018-09-12T16:03:02.263Z,99.90
2018-09-12T16:05:43.864Z,99.90
2018-09-12T16:08:25.375Z,99.90
2018-09-12T16:11:07.093Z,99.90
2018-09-12T16:13:49.063Z,99.90
2018-09-12T16:16:30.587Z,99.90
2018-09-12T16:19:12.737Z,99.90
2018-09-12T16:21:53.977Z,99.90
2018-09-12T16:24:35.918Z,99.90
2018-09-12T16:27:17.768Z,99.90
2018-09-12T16:29:59.376Z,99.90
2018-09-12T16:32:40.432Z,99.90
2018-09-12T16:35:21.951Z,99.90
2018-09-12T16:38:03.603Z,99.90
2018-09-12T16:40:44.418Z,99.90
2018-09-12T16:43:26.217Z,99.90
2018-09-12T16:46:08.057Z,99.90
2018-09-12T16:48:49.628Z,99.90
2018-09-12T16:51:31.544Z,99.90
2018-09-12T16:54:12.770Z,99.90
2018-09-12T16:56:54.375Z,99.90
2018-09-12T16:59:35.345Z,99.90
2018-09-12T17:02:16.976Z,99.90
2018-09-12T17:04:58.799Z,99.90
2018-09-12T17:07:40.544Z,99.90
2018-09-12T17:10:23.037Z,99.90
2018-09-12T17:13:04.814Z,99.90
2018-09-12T17:15:46.728Z,97.50
2018-09-12T17:18:28.312Z,95.40
2018-09-12T17:21:09.941Z,90.80
2018-09-12T17:23:50.922Z,86.30
2018-09-12T17:26:32.570Z,87.50
2018-09-12T17:29:13.441Z,86.50
2018-09-12T17:31:55.035Z,86.80
2018-09-12T17:34:37.564Z,87.10
2018-09-12T17:37:20.936Z,88.10
2018-09-12T17:40:01.969Z,89.50
2018-09-12T17:42:42.656Z,90.60
2018-09-12T17:45:24.225Z,91.10
2018-09-12T17:48:06.118Z,91.50
2018-09-12T17:50:47.652Z,92.10
2018-09-12T17:53:29.929Z,92.40
2018-09-12T17:56:10.946Z,92.60
2018-09-12T17:58:52.623Z,92.80
2018-09-12T18:01:34.736Z,93.30
2018-09-12T18:04:16.247Z,94.20
2018-09-12T18:06:57.886Z,95.30
2018-09-12T18:09:38.658Z,96.00
2018-09-12T18:12:20.124Z,97.00
2018-09-12T18:15:01.643Z,97.60
2018-09-12T18:17:43.019Z,97.00
2018-09-12T18:20:27.979Z,96.80
2018-09-12T18:23:09.605Z,96.50
2018-09-12T18:25:52.625Z,96.50
2018-09-12T18:28:33.710Z,96.60
2018-09-12T18:31:14.609Z,97.40
2018-09-12T18:33:56.215Z,97.40
2018-09-12T18:36:37.162Z,97.40
2018-09-12T18:39:18.793Z,97.50
2018-09-12T18:42:00.675Z,97.50
2018-09-12T18:44:42.322Z,97.50
2018-09-12T18:47:23.145Z,97.40
2018-09-12T18:50:04.037Z,97.10
2018-09-12T18:52:46.131Z,97.40
2018-09-12T18:55:27.460Z,97.40
2018-09-12T18:58:09.318Z,97.80
2018-09-12T19:00:50.978Z,98.20
2018-09-12T19:03:33.244Z,98.20
2018-09-12T19:06:14.820Z,98.30
2018-09-12T19:08:56.115Z,98.40
2018-09-12T19:11:37.658Z,98.70
2018-09-12T19:14:19.289Z,98.80
2018-09-12T19:17:01.035Z,99.00
2018-09-12T19:19:53.940Z,99.20
2018-09-12T19:22:35.390Z,98.90
2018-09-12T19:25:17.147Z,98.30
2018-09-12T19:27:58.745Z,97.80
2018-09-12T19:30:40.671Z,97.90
2018-09-12T19:33:43.768Z,97.40
2018-09-12T19:36:25.234Z,96.70
2018-09-12T19:39:06.725Z,96.40
2018-09-12T19:41:48.281Z,96.10
2018-09-12T19:44:29.917Z,96.00
2018-09-12T19:47:11.474Z,95.70
2018-09-12T19:49:53.710Z,95.70
2018-09-12T19:52:35.863Z,95.90
2018-09-12T19:55:16.847Z,96.00
2018-09-12T19:57:58.642Z,96.00
2018-09-12T20:00:40.103Z,95.80
2018-09-12T20:03:22.669Z,95.80
2018-09-12T20:06:04.078Z,96.00
2018-09-12T20:08:45.281Z,95.80
2018-09-12T20:11:28.000Z,95.40
2018-09-12T20:14:15.017Z,95.70
2018-09-12T20:16:56.527Z,95.60
2018-09-12T20:19:38.449Z,95.60
2018-09-12T20:22:20.188Z,95.50
2018-09-12T20:25:03.083Z,95.10
2018-09-12T20:27:44.620Z,95.00
2018-09-12T20:30:26.184Z,94.70
2018-09-12T20:33:07.948Z,94.20
2018-09-12T20:35:49.979Z,94.30
2018-09-12T20:38:31.715Z,93.90
2018-09-12T20:41:13.254Z,93.70
2018-09-12T20:43:55.058Z,93.80
2018-09-12T20:46:37.464Z,93.80
2018-09-12T20:49:20.372Z,93.50
2018-09-12T20:52:02.040Z,93.40
2018-09-12T20:54:47.172Z,94.30
2018-09-12T20:57:28.998Z,94.50
2018-09-12T21:00:10.174Z,94.50
2018-09-12T21:02:51.907Z,94.80
2018-09-12T21:05:35.285Z,94.80
2018-09-12T21:08:16.393Z,95.10
2018-09-12T21:10:58.262Z,94.90
2018-09-12T21:13:39.835Z,94.50
2018-09-12T21:16:21.348Z,94.10
2018-09-12T21:19:02.979Z,94.60
2018-09-12T21:21:44.732Z,95.40
2018-09-12T21:24:26.441Z,96.00
2018-09-12T21:27:09.135Z,96.10
2018-09-12T21:29:51.134Z,96.50
2018-09-12T21:32:32.914Z,96.40
2018-09-12T21:35:14.549Z,96.80
2018-09-12T21:37:56.184Z,97.10
2018-09-12T21:40:37.154Z,96.80
2018-09-12T21:43:18.801Z,96.80
2018-09-12T21:46:01.135Z,96.70
2018-09-12T21:48:42.427Z,97.10
2018-09-12T21:51:23.805Z,97.10
2018-09-12T21:54:05.375Z,97.60
2018-09-12T21:56:47.555Z,97.70
2018-09-12T21:59:29.029Z,97.90
2018-09-12T22:02:10.759Z,98.50
2018-09-12T22:04:51.876Z,98.70
2018-09-12T22:07:33.668Z,99.10
2018-09-12T22:10:15.105Z,99.80
2018-09-12T22:12:56.844Z,99.90
2018-09-12T22:15:38.530Z,99.90
2018-09-12T22:18:20.044Z,99.90
2018-09-12T22:21:01.941Z,99.90
2018-09-12T22:23:43.450Z,99.90
2018-09-12T22:26:26.387Z,99.90
2018-09-12T22:29:07.967Z,99.90
2018-09-12T22:31:53.932Z,99.90
2018-09-12T22:34:36.227Z,99.90
2018-09-12T22:37:17.367Z,99.90
2018-09-12T22:39:58.813Z,99.80
2018-09-12T22:42:40.528Z,99.20
2018-09-12T22:45:22.253Z,98.50
2018-09-12T22:48:03.821Z,98.00
2018-09-12T22:50:45.788Z,97.80
2018-09-12T22:53:27.241Z,97.60
2018-09-12T22:56:10.641Z,97.00
2018-09-12T22:58:51.766Z,96.50
2018-09-12T23:01:33.376Z,96.20
2018-09-12T23:04:15.270Z,96.00
2018-09-12T23:06:56.835Z,96.20
2018-09-12T23:09:37.627Z,95.90
2018-09-12T23:12:19.438Z,96.00
2018-09-12T23:15:01.138Z,95.80
2018-09-12T23:17:42.940Z,95.40
2018-09-12T23:20:24.671Z,95.50
2018-09-12T23:23:06.405Z,95.60
2018-09-12T23:25:47.885Z,95.70
2018-09-12T23:28:29.624Z,95.70
2018-09-12T23:31:11.174Z,95.70
2018-09-12T23:33:53.377Z,95.00
2018-09-12T23:36:34.455Z,95.20
2018-09-12T23:39:17.014Z,94.60
2018-09-12T23:41:58.035Z,94.80
2018-09-12T23:44:46.963Z,94.90
2018-09-12T23:47:28.901Z,94.60
2018-09-12T23:50:11.163Z,95.00
2018-09-12T23:52:53.101Z,95.00
2018-09-12T23:55:34.679Z,95.00
2018-09-12T23:58:15.673Z,95.20
